EGVN - Brize Norton
Distance from station: E 5mi, 14km
Updated: 02/24/2018 1:50am
Few Clouds
Few Clouds
 Wind from ENE
Wind: ENE 16 mph , 26 km/h
Temperature: 34°F , 1°C
Wind Chill: 24°F , -4°C
Dew Point: 27°F , -3°C
Humidity: 75%
Barometer: 30.15 inHg , 1021 hPa
Clouds: Few Clouds
Visibility: 6 miles , 10 km
Cloud details: Few Clouds 1500 ft
2018/02/24 09:50 EGVN 240950Z 07014KT 9999 FEW015 01/M03 Q1021 NOSIG